sensor_id;sensor_type;location;lat;lon;timestamp;P1;durP1;ratioP1;P2;durP2;ratioP2
13927;SDS011;7036;50.834;4.718;2023-08-06T00:01:53;1.73;;;1.37;;
13927;SDS011;7036;50.834;4.718;2023-08-06T00:04:20;1.73;;;1.10;;
13927;SDS011;7036;50.834;4.718;2023-08-06T00:06:47;1.93;;;1.37;;
13927;SDS011;7036;50.834;4.718;2023-08-06T00:09:14;2.22;;;1.20;;
13927;SDS011;7036;50.834;4.718;2023-08-06T00:11:41;1.03;;;0.80;;
13927;SDS011;7036;50.834;4.718;2023-08-06T00:14:08;1.27;;;1.10;;
13927;SDS011;7036;50.834;4.718;2023-08-06T00:16:35;1.10;;;1.00;;
13927;SDS011;7036;50.834;4.718;2023-08-06T00:19:02;1.10;;;1.00;;
13927;SDS011;7036;50.834;4.718;2023-08-06T00:21:29;1.53;;;1.03;;
13927;SDS011;7036;50.834;4.718;2023-08-06T00:23:56;1.50;;;1.10;;
13927;SDS011;7036;50.834;4.718;2023-08-06T00:26:23;1.20;;;1.10;;
13927;SDS011;7036;50.834;4.718;2023-08-06T00:28:50;1.70;;;1.17;;
13927;SDS011;7036;50.834;4.718;2023-08-06T00:31:17;1.10;;;0.90;;
13927;SDS011;7036;50.834;4.718;2023-08-06T00:33:44;2.40;;;1.00;;
13927;SDS011;7036;50.834;4.718;2023-08-06T00:36:12;2.25;;;1.20;;
13927;SDS011;7036;50.834;4.718;2023-08-06T00:38:39;1.93;;;1.20;;
13927;SDS011;7036;50.834;4.718;2023-08-06T00:41:07;2.50;;;1.00;;
13927;SDS011;7036;50.834;4.718;2023-08-06T00:43:35;1.27;;;0.90;;
13927;SDS011;7036;50.834;4.718;2023-08-06T00:46:02;2.90;;;1.20;;
13927;SDS011;7036;50.834;4.718;2023-08-06T00:48:29;1.90;;;1.03;;
13927;SDS011;7036;50.834;4.718;2023-08-06T00:50:56;2.03;;;1.00;;
13927;SDS011;7036;50.834;4.718;2023-08-06T00:53:22;1.40;;;0.90;;
13927;SDS011;7036;50.834;4.718;2023-08-06T00:55:49;1.30;;;0.90;;
13927;SDS011;7036;50.834;4.718;2023-08-06T00:58:16;1.30;;;1.07;;
13927;SDS011;7036;50.834;4.718;2023-08-06T01:00:43;1.07;;;0.97;;
13927;SDS011;7036;50.834;4.718;2023-08-06T01:03:10;1.20;;;1.10;;
13927;SDS011;7036;50.834;4.718;2023-08-06T01:08:12;0.60;;;0.60;;
13927;SDS011;7036;50.834;4.718;2023-08-06T01:13:39;0.80;;;0.80;;
13927;SDS011;7036;50.834;4.718;2023-08-06T01:16:16;1.00;;;0.80;;
13927;SDS011;7036;50.834;4.718;2023-08-06T01:18:43;0.97;;;0.83;;
13927;SDS011;7036;50.834;4.718;2023-08-06T01:21:10;1.40;;;1.20;;
13927;SDS011;7036;50.834;4.718;2023-08-06T01:23:43;1.00;;;0.90;;
13927;SDS011;7036;50.834;4.718;2023-08-06T01:31:31;1.30;;;1.03;;
13927;SDS011;7036;50.834;4.718;2023-08-06T01:33:58;1.73;;;0.90;;
13927;SDS011;7036;50.834;4.718;2023-08-06T01:36:25;1.60;;;1.10;;
13927;SDS011;7036;50.834;4.718;2023-08-06T01:38:52;1.00;;;0.80;;
13927;SDS011;7036;50.834;4.718;2023-08-06T01:41:21;1.07;;;0.97;;
13927;SDS011;7036;50.834;4.718;2023-08-06T01:43:48;1.63;;;0.80;;
13927;SDS011;7036;50.834;4.718;2023-08-06T01:46:15;1.20;;;1.00;;
13927;SDS011;7036;50.834;4.718;2023-08-06T01:48:42;1.33;;;1.00;;
13927;SDS011;7036;50.834;4.718;2023-08-06T01:51:09;1.30;;;0.63;;
13927;SDS011;7036;50.834;4.718;2023-08-06T01:53:36;1.40;;;1.00;;
13927;SDS011;7036;50.834;4.718;2023-08-06T01:56:03;0.87;;;0.77;;
13927;SDS011;7036;50.834;4.718;2023-08-06T01:58:30;0.87;;;0.87;;
13927;SDS011;7036;50.834;4.718;2023-08-06T02:00:58;1.27;;;0.90;;
13927;SDS011;7036;50.834;4.718;2023-08-06T02:03:25;1.00;;;0.90;;
13927;SDS011;7036;50.834;4.718;2023-08-06T02:05:51;1.83;;;1.00;;
13927;SDS011;7036;50.834;4.718;2023-08-06T02:08:18;1.97;;;1.10;;
13927;SDS011;7036;50.834;4.718;2023-08-06T02:10:45;0.97;;;0.70;;
13927;SDS011;7036;50.834;4.718;2023-08-06T02:13:12;1.50;;;0.70;;
13927;SDS011;7036;50.834;4.718;2023-08-06T02:15:43;1.23;;;1.00;;
13927;SDS011;7036;50.834;4.718;2023-08-06T02:18:09;1.00;;;0.83;;
13927;SDS011;7036;50.834;4.718;2023-08-06T02:20:36;1.43;;;0.87;;
13927;SDS011;7036;50.834;4.718;2023-08-06T02:23:04;2.42;;;1.17;;
13927;SDS011;7036;50.834;4.718;2023-08-06T02:25:31;1.17;;;0.90;;
13927;SDS011;7036;50.834;4.718;2023-08-06T02:27:58;1.33;;;0.90;;
13927;SDS011;7036;50.834;4.718;2023-08-06T02:30:27;1.67;;;1.03;;
13927;SDS011;7036;50.834;4.718;2023-08-06T02:32:54;1.50;;;0.93;;
13927;SDS011;7036;50.834;4.718;2023-08-06T02:35:22;0.93;;;0.70;;
13927;SDS011;7036;50.834;4.718;2023-08-06T02:37:49;0.80;;;0.80;;
13927;SDS011;7036;50.834;4.718;2023-08-06T02:40:15;0.77;;;0.70;;
13927;SDS011;7036;50.834;4.718;2023-08-06T02:42:42;1.37;;;1.00;;
13927;SDS011;7036;50.834;4.718;2023-08-06T02:45:09;1.20;;;0.83;;
13927;SDS011;7036;50.834;4.718;2023-08-06T02:47:37;1.27;;;0.97;;
13927;SDS011;7036;50.834;4.718;2023-08-06T02:50:04;2.20;;;1.13;;
13927;SDS011;7036;50.834;4.718;2023-08-06T02:52:32;2.33;;;1.00;;
13927;SDS011;7036;50.834;4.718;2023-08-06T02:54:58;1.30;;;0.67;;
13927;SDS011;7036;50.834;4.718;2023-08-06T02:57:25;1.87;;;0.93;;
13927;SDS011;7036;50.834;4.718;2023-08-06T02:59:52;1.40;;;0.70;;
13927;SDS011;7036;50.834;4.718;2023-08-06T03:02:19;1.10;;;0.90;;
13927;SDS011;7036;50.834;4.718;2023-08-06T03:04:46;1.37;;;0.70;;
13927;SDS011;7036;50.834;4.718;2023-08-06T03:07:13;1.30;;;0.77;;
13927;SDS011;7036;50.834;4.718;2023-08-06T03:09:40;1.07;;;0.80;;
13927;SDS011;7036;50.834;4.718;2023-08-06T03:12:09;1.40;;;1.00;;
13927;SDS011;7036;50.834;4.718;2023-08-06T03:14:37;0.80;;;0.70;;
13927;SDS011;7036;50.834;4.718;2023-08-06T03:17:04;1.03;;;0.77;;
13927;SDS011;7036;50.834;4.718;2023-08-06T03:19:33;2.27;;;0.87;;
13927;SDS011;7036;50.834;4.718;2023-08-06T03:21:59;0.83;;;0.70;;
13927;SDS011;7036;50.834;4.718;2023-08-06T03:24:26;1.27;;;1.03;;
13927;SDS011;7036;50.834;4.718;2023-08-06T03:26:53;1.13;;;0.60;;
13927;SDS011;7036;50.834;4.718;2023-08-06T03:29:20;1.23;;;0.90;;
13927;SDS011;7036;50.834;4.718;2023-08-06T03:31:48;0.73;;;0.73;;
13927;SDS011;7036;50.834;4.718;2023-08-06T03:34:14;1.20;;;1.10;;
13927;SDS011;7036;50.834;4.718;2023-08-06T03:36:41;1.37;;;0.80;;
13927;SDS011;7036;50.834;4.718;2023-08-06T03:39:08;0.90;;;0.77;;
13927;SDS011;7036;50.834;4.718;2023-08-06T03:41:35;1.10;;;0.80;;
13927;SDS011;7036;50.834;4.718;2023-08-06T03:44:02;0.90;;;0.70;;
13927;SDS011;7036;50.834;4.718;2023-08-06T03:46:29;1.10;;;1.00;;
13927;SDS011;7036;50.834;4.718;2023-08-06T03:48:57;0.80;;;0.70;;
13927;SDS011;7036;50.834;4.718;2023-08-06T03:51:25;1.27;;;0.90;;
13927;SDS011;7036;50.834;4.718;2023-08-06T03:53:52;1.00;;;0.83;;
13927;SDS011;7036;50.834;4.718;2023-08-06T03:56:19;1.30;;;0.97;;
13927;SDS011;7036;50.834;4.718;2023-08-06T03:58:46;0.97;;;0.73;;
13927;SDS011;7036;50.834;4.718;2023-08-06T04:01:12;1.07;;;0.80;;
13927;SDS011;7036;50.834;4.718;2023-08-06T04:03:39;0.87;;;0.70;;
13927;SDS011;7036;50.834;4.718;2023-08-06T04:06:06;2.30;;;0.87;;
13927;SDS011;7036;50.834;4.718;2023-08-06T04:08:33;1.60;;;0.80;;
13927;SDS011;7036;50.834;4.718;2023-08-06T04:11:00;1.83;;;0.93;;
13927;SDS011;7036;50.834;4.718;2023-08-06T04:13:27;1.70;;;1.07;;
13927;SDS011;7036;50.834;4.718;2023-08-06T04:15:54;1.20;;;0.80;;
13927;SDS011;7036;50.834;4.718;2023-08-06T04:18:21;1.20;;;1.10;;
13927;SDS011;7036;50.834;4.718;2023-08-06T04:20:48;1.40;;;0.67;;
13927;SDS011;7036;50.834;4.718;2023-08-06T04:23:15;1.20;;;1.00;;
13927;SDS011;7036;50.834;4.718;2023-08-06T04:25:43;0.90;;;0.63;;
13927;SDS011;7036;50.834;4.718;2023-08-06T04:28:09;2.03;;;1.20;;
13927;SDS011;7036;50.834;4.718;2023-08-06T04:30:36;1.00;;;0.90;;
13927;SDS011;7036;50.834;4.718;2023-08-06T04:33:03;1.30;;;1.13;;
13927;SDS011;7036;50.834;4.718;2023-08-06T04:35:30;1.20;;;1.10;;
13927;SDS011;7036;50.834;4.718;2023-08-06T04:38:00;1.30;;;1.20;;
13927;SDS011;7036;50.834;4.718;2023-08-06T04:40:27;1.20;;;1.10;;
13927;SDS011;7036;50.834;4.718;2023-08-06T04:42:54;1.67;;;1.10;;
13927;SDS011;7036;50.834;4.718;2023-08-06T04:45:21;1.50;;;1.00;;
13927;SDS011;7036;50.834;4.718;2023-08-06T04:47:48;1.80;;;1.10;;
13927;SDS011;7036;50.834;4.718;2023-08-06T04:50:15;1.40;;;1.00;;
13927;SDS011;7036;50.834;4.718;2023-08-06T04:52:42;1.13;;;1.03;;
13927;SDS011;7036;50.834;4.718;2023-08-06T04:55:10;1.10;;;1.00;;
13927;SDS011;7036;50.834;4.718;2023-08-06T04:57:36;1.33;;;1.23;;
13927;SDS011;7036;50.834;4.718;2023-08-06T05:00:05;1.17;;;1.00;;
13927;SDS011;7036;50.834;4.718;2023-08-06T05:02:33;1.33;;;1.20;;
13927;SDS011;7036;50.834;4.718;2023-08-06T05:04:59;1.30;;;1.00;;
13927;SDS011;7036;50.834;4.718;2023-08-06T05:07:26;0.67;;;0.60;;
13927;SDS011;7036;50.834;4.718;2023-08-06T05:09:53;0.90;;;0.90;;
13927;SDS011;7036;50.834;4.718;2023-08-06T05:12:20;0.97;;;0.70;;
13927;SDS011;7036;50.834;4.718;2023-08-06T05:14:47;1.00;;;0.90;;
13927;SDS011;7036;50.834;4.718;2023-08-06T05:17:14;1.90;;;1.00;;
13927;SDS011;7036;50.834;4.718;2023-08-06T05:19:41;0.70;;;0.60;;
13927;SDS011;7036;50.834;4.718;2023-08-06T05:22:08;1.13;;;0.97;;
13927;SDS011;7036;50.834;4.718;2023-08-06T05:24:35;1.83;;;0.90;;
13927;SDS011;7036;50.834;4.718;2023-08-06T05:27:02;1.43;;;0.70;;
13927;SDS011;7036;50.834;4.718;2023-08-06T05:29:28;1.47;;;0.93;;
13927;SDS011;7036;50.834;4.718;2023-08-06T05:31:55;1.13;;;0.80;;
13927;SDS011;7036;50.834;4.718;2023-08-06T05:34:22;1.00;;;0.90;;
13927;SDS011;7036;50.834;4.718;2023-08-06T05:36:49;0.97;;;0.70;;
13927;SDS011;7036;50.834;4.718;2023-08-06T05:39:17;0.80;;;0.80;;
13927;SDS011;7036;50.834;4.718;2023-08-06T05:41:44;1.17;;;0.90;;
13927;SDS011;7036;50.834;4.718;2023-08-06T05:44:10;1.33;;;1.10;;
13927;SDS011;7036;50.834;4.718;2023-08-06T05:46:37;1.33;;;0.90;;
13927;SDS011;7036;50.834;4.718;2023-08-06T05:49:04;1.60;;;0.73;;
13927;SDS011;7036;50.834;4.718;2023-08-06T05:51:31;0.97;;;0.97;;
13927;SDS011;7036;50.834;4.718;2023-08-06T05:53:58;1.20;;;0.90;;
13927;SDS011;7036;50.834;4.718;2023-08-06T05:56:25;0.80;;;0.80;;
13927;SDS011;7036;50.834;4.718;2023-08-06T05:58:52;1.03;;;0.70;;
13927;SDS011;7036;50.834;4.718;2023-08-06T06:01:19;0.77;;;0.77;;
13927;SDS011;7036;50.834;4.718;2023-08-06T06:03:46;1.37;;;0.90;;
13927;SDS011;7036;50.834;4.718;2023-08-06T06:06:12;1.00;;;0.80;;
13927;SDS011;7036;50.834;4.718;2023-08-06T06:08:40;2.17;;;1.30;;
13927;SDS011;7036;50.834;4.718;2023-08-06T06:11:07;1.13;;;0.63;;
13927;SDS011;7036;50.834;4.718;2023-08-06T06:13:33;1.20;;;1.10;;
13927;SDS011;7036;50.834;4.718;2023-08-06T06:16:00;1.10;;;1.00;;
13927;SDS011;7036;50.834;4.718;2023-08-06T06:18:27;0.93;;;0.90;;
13927;SDS011;7036;50.834;4.718;2023-08-06T06:20:54;1.10;;;1.00;;
13927;SDS011;7036;50.834;4.718;2023-08-06T06:23:21;1.07;;;0.90;;
13927;SDS011;7036;50.834;4.718;2023-08-06T06:25:49;0.70;;;0.70;;
13927;SDS011;7036;50.834;4.718;2023-08-06T06:28:16;0.90;;;0.80;;
13927;SDS011;7036;50.834;4.718;2023-08-06T06:30:43;1.17;;;0.90;;
13927;SDS011;7036;50.834;4.718;2023-08-06T06:33:10;0.97;;;0.90;;
13927;SDS011;7036;50.834;4.718;2023-08-06T06:35:37;0.93;;;0.80;;
13927;SDS011;7036;50.834;4.718;2023-08-06T06:38:04;1.60;;;1.07;;
13927;SDS011;7036;50.834;4.718;2023-08-06T06:40:31;1.40;;;1.17;;
13927;SDS011;7036;50.834;4.718;2023-08-06T06:42:58;1.07;;;0.93;;
13927;SDS011;7036;50.834;4.718;2023-08-06T06:45:24;1.10;;;0.80;;
13927;SDS011;7036;50.834;4.718;2023-08-06T06:47:51;1.43;;;1.07;;
13927;SDS011;7036;50.834;4.718;2023-08-06T06:50:18;1.57;;;1.00;;
13927;SDS011;7036;50.834;4.718;2023-08-06T06:52:45;0.70;;;0.70;;
13927;SDS011;7036;50.834;4.718;2023-08-06T06:55:13;0.80;;;0.77;;
13927;SDS011;7036;50.834;4.718;2023-08-06T06:57:40;1.63;;;0.90;;
13927;SDS011;7036;50.834;4.718;2023-08-06T07:00:07;1.10;;;1.00;;
13927;SDS011;7036;50.834;4.718;2023-08-06T07:02:34;1.95;;;0.80;;
13927;SDS011;7036;50.834;4.718;2023-08-06T07:05:01;1.03;;;0.93;;
13927;SDS011;7036;50.834;4.718;2023-08-06T07:07:28;2.20;;;1.07;;
13927;SDS011;7036;50.834;4.718;2023-08-06T07:09:56;1.30;;;1.00;;
13927;SDS011;7036;50.834;4.718;2023-08-06T07:12:23;1.40;;;0.97;;
13927;SDS011;7036;50.834;4.718;2023-08-06T07:14:50;3.83;;;1.52;;
13927;SDS011;7036;50.834;4.718;2023-08-06T07:17:18;2.60;;;1.50;;
13927;SDS011;7036;50.834;4.718;2023-08-06T07:19:46;2.67;;;1.40;;
13927;SDS011;7036;50.834;4.718;2023-08-06T07:22:13;1.53;;;1.10;;
13927;SDS011;7036;50.834;4.718;2023-08-06T07:24:42;1.63;;;1.30;;
13927;SDS011;7036;50.834;4.718;2023-08-06T07:27:09;1.20;;;1.00;;
13927;SDS011;7036;50.834;4.718;2023-08-06T07:29:36;2.40;;;1.35;;
13927;SDS011;7036;50.834;4.718;2023-08-06T07:32:03;1.10;;;1.00;;
13927;SDS011;7036;50.834;4.718;2023-08-06T07:34:33;2.22;;;1.30;;
13927;SDS011;7036;50.834;4.718;2023-08-06T07:37:00;2.17;;;1.10;;
13927;SDS011;7036;50.834;4.718;2023-08-06T07:39:27;2.83;;;1.40;;
13927;SDS011;7036;50.834;4.718;2023-08-06T07:41:55;1.98;;;1.40;;
13927;SDS011;7036;50.834;4.718;2023-08-06T07:44:23;3.25;;;1.40;;
13927;SDS011;7036;50.834;4.718;2023-08-06T07:46:50;3.20;;;1.60;;
13927;SDS011;7036;50.834;4.718;2023-08-06T07:49:17;1.67;;;1.10;;
13927;SDS011;7036;50.834;4.718;2023-08-06T07:51:45;2.25;;;1.30;;
13927;SDS011;7036;50.834;4.718;2023-08-06T07:54:13;4.00;;;1.52;;
13927;SDS011;7036;50.834;4.718;2023-08-06T07:56:40;3.27;;;1.90;;
13927;SDS011;7036;50.834;4.718;2023-08-06T07:59:07;2.00;;;1.17;;
13927;SDS011;7036;50.834;4.718;2023-08-06T08:01:34;2.58;;;1.27;;
13927;SDS011;7036;50.834;4.718;2023-08-06T08:04:01;5.78;;;1.63;;
13927;SDS011;7036;50.834;4.718;2023-08-06T08:06:30;3.42;;;1.52;;
13927;SDS011;7036;50.834;4.718;2023-08-06T08:08:57;5.43;;;1.88;;
13927;SDS011;7036;50.834;4.718;2023-08-06T08:11:25;1.50;;;1.03;;
13927;SDS011;7036;50.834;4.718;2023-08-06T08:13:54;5.13;;;2.05;;
13927;SDS011;7036;50.834;4.718;2023-08-06T08:16:20;2.70;;;1.60;;
13927;SDS011;7036;50.834;4.718;2023-08-06T08:18:51;5.20;;;1.63;;
13927;SDS011;7036;50.834;4.718;2023-08-06T08:21:17;2.43;;;1.30;;
13927;SDS011;7036;50.834;4.718;2023-08-06T08:23:45;2.47;;;1.70;;
13927;SDS011;7036;50.834;4.718;2023-08-06T08:26:13;2.63;;;1.35;;
13927;SDS011;7036;50.834;4.718;2023-08-06T08:28:41;2.35;;;1.45;;
13927;SDS011;7036;50.834;4.718;2023-08-06T08:31:10;3.65;;;1.58;;
13927;SDS011;7036;50.834;4.718;2023-08-06T08:33:37;2.33;;;1.27;;
13927;SDS011;7036;50.834;4.718;2023-08-06T08:36:04;2.27;;;1.20;;
13927;SDS011;7036;50.834;4.718;2023-08-06T08:38:31;2.35;;;1.40;;
13927;SDS011;7036;50.834;4.718;2023-08-06T08:40:58;1.73;;;1.37;;
13927;SDS011;7036;50.834;4.718;2023-08-06T08:43:26;3.20;;;1.60;;
13927;SDS011;7036;50.834;4.718;2023-08-06T08:45:54;2.80;;;1.48;;
13927;SDS011;7036;50.834;4.718;2023-08-06T08:48:22;4.97;;;1.52;;
13927;SDS011;7036;50.834;4.718;2023-08-06T08:50:50;3.38;;;1.55;;
13927;SDS011;7036;50.834;4.718;2023-08-06T08:53:17;2.17;;;1.45;;
13927;SDS011;7036;50.834;4.718;2023-08-06T08:55:46;6.75;;;1.58;;
13927;SDS011;7036;50.834;4.718;2023-08-06T08:58:13;2.17;;;1.50;;
13927;SDS011;7036;50.834;4.718;2023-08-06T09:00:45;2.60;;;1.67;;
13927;SDS011;7036;50.834;4.718;2023-08-06T09:03:13;2.33;;;1.27;;
13927;SDS011;7036;50.834;4.718;2023-08-06T09:05:41;3.10;;;1.30;;
13927;SDS011;7036;50.834;4.718;2023-08-06T09:08:08;2.90;;;1.48;;
13927;SDS011;7036;50.834;4.718;2023-08-06T09:10:39;4.15;;;1.90;;
13927;SDS011;7036;50.834;4.718;2023-08-06T09:13:05;2.10;;;1.50;;
13927;SDS011;7036;50.834;4.718;2023-08-06T09:15:33;1.77;;;1.60;;
13927;SDS011;7036;50.834;4.718;2023-08-06T09:18:00;4.05;;;1.60;;
13927;SDS011;7036;50.834;4.718;2023-08-06T09:20:28;3.63;;;1.80;;
13927;SDS011;7036;50.834;4.718;2023-08-06T09:22:55;3.00;;;1.80;;
13927;SDS011;7036;50.834;4.718;2023-08-06T09:25:22;1.57;;;1.47;;
13927;SDS011;7036;50.834;4.718;2023-08-06T09:27:50;1.95;;;1.45;;
13927;SDS011;7036;50.834;4.718;2023-08-06T09:30:30;2.63;;;1.65;;
13927;SDS011;7036;50.834;4.718;2023-08-06T09:32:59;2.40;;;1.73;;
13927;SDS011;7036;50.834;4.718;2023-08-06T09:35:30;3.83;;;1.20;;
13927;SDS011;7036;50.834;4.718;2023-08-06T09:38:04;1.90;;;1.23;;
13927;SDS011;7036;50.834;4.718;2023-08-06T09:40:32;2.13;;;1.50;;
13927;SDS011;7036;50.834;4.718;2023-08-06T09:43:00;3.25;;;1.40;;
13927;SDS011;7036;50.834;4.718;2023-08-06T09:45:29;3.65;;;1.50;;
13927;SDS011;7036;50.834;4.718;2023-08-06T09:47:57;1.95;;;1.40;;
13927;SDS011;7036;50.834;4.718;2023-08-06T09:50:28;2.53;;;1.80;;
13927;SDS011;7036;50.834;4.718;2023-08-06T09:52:51;2.60;;;1.53;;
13927;SDS011;7036;50.834;4.718;2023-08-06T09:55:18;2.17;;;1.40;;
13927;SDS011;7036;50.834;4.718;2023-08-06T09:57:46;3.17;;;1.30;;
13927;SDS011;7036;50.834;4.718;2023-08-06T10:00:14;1.92;;;1.17;;
13927;SDS011;7036;50.834;4.718;2023-08-06T10:02:42;2.72;;;1.40;;
13927;SDS011;7036;50.834;4.718;2023-08-06T10:05:09;3.33;;;1.63;;
13927;SDS011;7036;50.834;4.718;2023-08-06T10:07:37;2.42;;;1.52;;
13927;SDS011;7036;50.834;4.718;2023-08-06T10:10:06;1.77;;;1.57;;
13927;SDS011;7036;50.834;4.718;2023-08-06T10:12:35;1.98;;;1.17;;
13927;SDS011;7036;50.834;4.718;2023-08-06T10:15:03;1.70;;;1.40;;
13927;SDS011;7036;50.834;4.718;2023-08-06T10:17:30;2.40;;;1.48;;
13927;SDS011;7036;50.834;4.718;2023-08-06T10:19:58;3.17;;;1.20;;
13927;SDS011;7036;50.834;4.718;2023-08-06T10:22:24;1.92;;;1.25;;
13927;SDS011;7036;50.834;4.718;2023-08-06T10:24:56;3.58;;;1.27;;
13927;SDS011;7036;50.834;4.718;2023-08-06T10:27:22;2.60;;;1.60;;
13927;SDS011;7036;50.834;4.718;2023-08-06T10:32:56;3.73;;;1.40;;
13927;SDS011;7036;50.834;4.718;2023-08-06T10:38:03;3.60;;;1.55;;
13927;SDS011;7036;50.834;4.718;2023-08-06T10:40:29;2.40;;;1.60;;
13927;SDS011;7036;50.834;4.718;2023-08-06T10:43:00;2.22;;;1.38;;
13927;SDS011;7036;50.834;4.718;2023-08-06T10:45:29;2.27;;;1.33;;
13927;SDS011;7036;50.834;4.718;2023-08-06T10:47:57;2.78;;;1.80;;
13927;SDS011;7036;50.834;4.718;2023-08-06T10:50:24;4.07;;;1.20;;
13927;SDS011;7036;50.834;4.718;2023-08-06T10:52:51;3.42;;;1.60;;
13927;SDS011;7036;50.834;4.718;2023-08-06T10:55:23;3.03;;;1.23;;
13927;SDS011;7036;50.834;4.718;2023-08-06T10:57:51;3.57;;;1.50;;
13927;SDS011;7036;50.834;4.718;2023-08-06T11:00:18;1.70;;;1.27;;
13927;SDS011;7036;50.834;4.718;2023-08-06T11:02:47;2.15;;;1.23;;
13927;SDS011;7036;50.834;4.718;2023-08-06T11:05:14;2.45;;;1.42;;
13927;SDS011;7036;50.834;4.718;2023-08-06T11:07:42;2.28;;;1.60;;
13927;SDS011;7036;50.834;4.718;2023-08-06T11:10:12;4.18;;;1.75;;
13927;SDS011;7036;50.834;4.718;2023-08-06T11:12:41;5.57;;;1.80;;
13927;SDS011;7036;50.834;4.718;2023-08-06T11:15:08;6.53;;;1.63;;
13927;SDS011;7036;50.834;4.718;2023-08-06T11:17:35;5.07;;;1.88;;
13927;SDS011;7036;50.834;4.718;2023-08-06T11:20:03;8.93;;;1.65;;
13927;SDS011;7036;50.834;4.718;2023-08-06T11:22:30;3.08;;;1.60;;
13927;SDS011;7036;50.834;4.718;2023-08-06T11:24:57;6.32;;;1.80;;
13927;SDS011;7036;50.834;4.718;2023-08-06T11:27:25;3.00;;;1.42;;
13927;SDS011;7036;50.834;4.718;2023-08-06T11:29:52;4.68;;;1.58;;
13927;SDS011;7036;50.834;4.718;2023-08-06T11:32:19;3.85;;;1.90;;
13927;SDS011;7036;50.834;4.718;2023-08-06T11:34:47;3.72;;;1.58;;
13927;SDS011;7036;50.834;4.718;2023-08-06T11:37:15;2.67;;;1.88;;
13927;SDS011;7036;50.834;4.718;2023-08-06T11:39:46;3.60;;;1.65;;
13927;SDS011;7036;50.834;4.718;2023-08-06T11:42:15;3.03;;;1.07;;
13927;SDS011;7036;50.834;4.718;2023-08-06T11:44:42;5.07;;;1.60;;
13927;SDS011;7036;50.834;4.718;2023-08-06T11:47:12;4.30;;;1.60;;
13927;SDS011;7036;50.834;4.718;2023-08-06T11:49:39;5.78;;;1.70;;
13927;SDS011;7036;50.834;4.718;2023-08-06T11:52:17;2.13;;;1.50;;
13927;SDS011;7036;50.834;4.718;2023-08-06T11:54:37;3.07;;;1.57;;
13927;SDS011;7036;50.834;4.718;2023-08-06T11:57:05;4.93;;;1.70;;
13927;SDS011;7036;50.834;4.718;2023-08-06T11:59:33;4.30;;;1.67;;
13927;SDS011;7036;50.834;4.718;2023-08-06T12:02:03;6.38;;;1.73;;
13927;SDS011;7036;50.834;4.718;2023-08-06T12:04:30;4.37;;;2.13;;
13927;SDS011;7036;50.834;4.718;2023-08-06T12:07:04;3.63;;;1.55;;
13927;SDS011;7036;50.834;4.718;2023-08-06T12:09:25;5.95;;;1.75;;
13927;SDS011;7036;50.834;4.718;2023-08-06T12:11:56;3.97;;;1.58;;
13927;SDS011;7036;50.834;4.718;2023-08-06T12:14:23;4.37;;;1.90;;
13927;SDS011;7036;50.834;4.718;2023-08-06T12:16:50;4.28;;;1.70;;
13927;SDS011;7036;50.834;4.718;2023-08-06T12:19:17;4.32;;;1.45;;
13927;SDS011;7036;50.834;4.718;2023-08-06T12:21:44;4.65;;;1.98;;
13927;SDS011;7036;50.834;4.718;2023-08-06T12:24:11;4.35;;;1.48;;
13927;SDS011;7036;50.834;4.718;2023-08-06T12:26:39;2.10;;;1.27;;
13927;SDS011;7036;50.834;4.718;2023-08-06T12:29:06;5.27;;;1.80;;
13927;SDS011;7036;50.834;4.718;2023-08-06T12:31:34;4.07;;;1.50;;
13927;SDS011;7036;50.834;4.718;2023-08-06T12:34:01;2.88;;;1.35;;
13927;SDS011;7036;50.834;4.718;2023-08-06T12:36:28;4.68;;;1.50;;
13927;SDS011;7036;50.834;4.718;2023-08-06T12:38:55;3.42;;;1.67;;
13927;SDS011;7036;50.834;4.718;2023-08-06T12:41:24;3.10;;;1.55;;
13927;SDS011;7036;50.834;4.718;2023-08-06T12:43:51;4.13;;;1.50;;
13927;SDS011;7036;50.834;4.718;2023-08-06T12:46:18;2.58;;;1.60;;
13927;SDS011;7036;50.834;4.718;2023-08-06T12:48:46;2.50;;;1.35;;
13927;SDS011;7036;50.834;4.718;2023-08-06T12:51:13;1.80;;;1.50;;
13927;SDS011;7036;50.834;4.718;2023-08-06T12:53:41;4.03;;;1.75;;
13927;SDS011;7036;50.834;4.718;2023-08-06T12:56:10;2.55;;;1.40;;
13927;SDS011;7036;50.834;4.718;2023-08-06T12:58:37;2.47;;;1.13;;
13927;SDS011;7036;50.834;4.718;2023-08-06T13:01:04;8.30;;;1.90;;
13927;SDS011;7036;50.834;4.718;2023-08-06T13:03:31;4.35;;;1.50;;
13927;SDS011;7036;50.834;4.718;2023-08-06T13:05:59;3.20;;;1.73;;
13927;SDS011;7036;50.834;4.718;2023-08-06T13:08:26;7.45;;;1.80;;
13927;SDS011;7036;50.834;4.718;2023-08-06T13:10:54;3.35;;;1.52;;
13927;SDS011;7036;50.834;4.718;2023-08-06T13:13:21;4.35;;;1.90;;
13927;SDS011;7036;50.834;4.718;2023-08-06T13:15:49;2.67;;;1.65;;
13927;SDS011;7036;50.834;4.718;2023-08-06T13:18:17;3.00;;;1.42;;
13927;SDS011;7036;50.834;4.718;2023-08-06T13:20:45;3.47;;;1.48;;
13927;SDS011;7036;50.834;4.718;2023-08-06T13:23:13;4.70;;;1.58;;
13927;SDS011;7036;50.834;4.718;2023-08-06T13:25:41;2.50;;;1.45;;
13927;SDS011;7036;50.834;4.718;2023-08-06T13:28:08;5.30;;;1.58;;
13927;SDS011;7036;50.834;4.718;2023-08-06T13:30:36;5.15;;;1.40;;
13927;SDS011;7036;50.834;4.718;2023-08-06T13:33:03;3.40;;;1.47;;
13927;SDS011;7036;50.834;4.718;2023-08-06T13:35:30;2.53;;;1.55;;
13927;SDS011;7036;50.834;4.718;2023-08-06T13:37:57;3.08;;;1.52;;
13927;SDS011;7036;50.834;4.718;2023-08-06T13:40:24;3.60;;;1.50;;
13927;SDS011;7036;50.834;4.718;2023-08-06T13:42:52;4.35;;;1.83;;
13927;SDS011;7036;50.834;4.718;2023-08-06T13:45:21;3.65;;;1.35;;
13927;SDS011;7036;50.834;4.718;2023-08-06T13:47:47;3.50;;;2.00;;
13927;SDS011;7036;50.834;4.718;2023-08-06T13:50:15;3.40;;;1.20;;
13927;SDS011;7036;50.834;4.718;2023-08-06T13:52:42;2.25;;;1.42;;
13927;SDS011;7036;50.834;4.718;2023-08-06T13:55:10;3.78;;;1.58;;
13927;SDS011;7036;50.834;4.718;2023-08-06T13:57:37;3.90;;;1.40;;
13927;SDS011;7036;50.834;4.718;2023-08-06T14:00:06;4.30;;;1.63;;
13927;SDS011;7036;50.834;4.718;2023-08-06T14:02:33;3.20;;;1.47;;
13927;SDS011;7036;50.834;4.718;2023-08-06T14:05:01;4.20;;;1.97;;
13927;SDS011;7036;50.834;4.718;2023-08-06T14:07:27;2.30;;;1.40;;
13927;SDS011;7036;50.834;4.718;2023-08-06T14:09:54;1.93;;;1.20;;
13927;SDS011;7036;50.834;4.718;2023-08-06T14:12:22;2.13;;;1.27;;
13927;SDS011;7036;50.834;4.718;2023-08-06T14:14:49;3.58;;;1.40;;
13927;SDS011;7036;50.834;4.718;2023-08-06T14:17:17;2.55;;;1.65;;
13927;SDS011;7036;50.834;4.718;2023-08-06T14:19:45;4.18;;;1.48;;
13927;SDS011;7036;50.834;4.718;2023-08-06T14:22:12;1.77;;;1.20;;
13927;SDS011;7036;50.834;4.718;2023-08-06T14:24:39;4.95;;;1.65;;
13927;SDS011;7036;50.834;4.718;2023-08-06T14:27:06;1.87;;;1.30;;
13927;SDS011;7036;50.834;4.718;2023-08-06T14:29:33;3.35;;;1.17;;
13927;SDS011;7036;50.834;4.718;2023-08-06T14:32:01;2.25;;;1.60;;
13927;SDS011;7036;50.834;4.718;2023-08-06T14:34:28;1.90;;;1.30;;
13927;SDS011;7036;50.834;4.718;2023-08-06T14:36:55;2.45;;;1.42;;
13927;SDS011;7036;50.834;4.718;2023-08-06T14:39:23;2.75;;;1.30;;
13927;SDS011;7036;50.834;4.718;2023-08-06T14:41:50;4.47;;;1.63;;
13927;SDS011;7036;50.834;4.718;2023-08-06T14:44:17;6.15;;;1.73;;
13927;SDS011;7036;50.834;4.718;2023-08-06T14:46:45;3.53;;;1.30;;
13927;SDS011;7036;50.834;4.718;2023-08-06T14:49:12;4.80;;;1.77;;
13927;SDS011;7036;50.834;4.718;2023-08-06T14:51:41;7.22;;;1.55;;
13927;SDS011;7036;50.834;4.718;2023-08-06T14:54:08;6.67;;;1.67;;
13927;SDS011;7036;50.834;4.718;2023-08-06T14:56:36;7.78;;;1.90;;
13927;SDS011;7036;50.834;4.718;2023-08-06T14:59:03;4.25;;;1.80;;
13927;SDS011;7036;50.834;4.718;2023-08-06T15:01:32;4.23;;;1.70;;
13927;SDS011;7036;50.834;4.718;2023-08-06T15:04:00;2.75;;;1.40;;
13927;SDS011;7036;50.834;4.718;2023-08-06T15:06:28;3.35;;;1.65;;
13927;SDS011;7036;50.834;4.718;2023-08-06T15:08:56;8.63;;;2.20;;
13927;SDS011;7036;50.834;4.718;2023-08-06T15:11:24;3.45;;;1.50;;
13927;SDS011;7036;50.834;4.718;2023-08-06T15:13:51;4.15;;;1.58;;
13927;SDS011;7036;50.834;4.718;2023-08-06T15:16:19;3.47;;;1.50;;
13927;SDS011;7036;50.834;4.718;2023-08-06T15:18:47;3.80;;;1.60;;